Time,TemperatureF,DewpointF,PressureIn,WindDirection,WindDirectionDegrees,WindSpeedMPH,WindSpeedGustMPH,Humidity,HourlyPrecipIn,Conditions,Clouds,dailyrainin,SoftwareType,DateUTC
2013-07-27 00:01:00,65.6,59.6,29.88,SW,215,0.0,0.0,81,0.00,,---,0.00,VWS V14.01,2013-07-27 04:01:00,
2013-07-27 00:02:00,65.6,59.6,29.88,SW,215,1.3,1.3,81,0.00,,---,0.00,VWS V14.01,2013-07-27 04:02:00,
2013-07-27 00:03:00,65.6,59.6,29.88,South,170,0.0,1.3,81,0.00,,---,0.00,VWS V14.01,2013-07-27 04:03:00,
2013-07-27 00:08:00,65.6,59.6,29.88,NW,305,0.0,0.0,81,0.00,,---,0.00,VWS V14.01,2013-07-27 04:08:00,
2013-07-27 00:09:00,65.6,59.6,29.88,SW,215,2.0,2.0,81,0.00,,---,0.00,VWS V14.01,2013-07-27 04:09:00,
2013-07-27 00:14:00,65.6,59.6,29.88,SW,215,1.7,4.3,81,0.00,,---,0.00,VWS V14.01,2013-07-27 04:14:00,
2013-07-27 00:19:00,65.6,60.0,29.88,South,170,2.0,4.3,82,0.00,,---,0.00,VWS V14.01,2013-07-27 04:19:00,
2013-07-27 00:24:00,65.6,60.0,29.88,SW,215,3.0,3.0,82,0.00,,---,0.00,VWS V14.01,2013-07-27 04:24:00,
2013-07-27 00:29:00,65.6,60.0,29.88,SW,215,4.0,4.0,82,0.00,,---,0.00,VWS V14.01,2013-07-27 04:29:00,
2013-07-27 00:34:00,65.6,59.6,29.88,SE,125,3.6,3.6,81,0.00,,---,0.00,VWS V14.01,2013-07-27 04:34:00,
2013-07-27 00:39:00,65.4,60.1,29.88,South,170,4.0,4.0,83,0.00,,---,0.00,VWS V14.01,2013-07-27 04:39:00,
2013-07-27 00:44:00,65.4,59.8,29.85,South,170,0.0,0.0,82,0.00,,---,0.00,VWS V14.01,2013-07-27 04:44:00,
2013-07-27 00:49:00,65.4,59.8,29.85,South,170,0.0,0.0,82,0.00,,---,0.00,VWS V14.01,2013-07-27 04:49:00,
2013-07-27 00:54:00,65.4,59.8,29.85,South,170,3.3,3.6,82,0.00,,---,0.00,VWS V14.01,2013-07-27 04:54:00,
2013-07-27 00:59:00,65.4,59.8,29.88,West,260,1.3,1.7,82,0.00,,---,0.00,VWS V14.01,2013-07-27 04:59:00,
2013-07-27 01:04:00,65.4,60.5,29.88,South,170,4.0,5.3,84,0.00,,---,0.00,VWS V14.01,2013-07-27 05:04:00,
2013-07-27 01:09:00,65.4,60.1,29.88,East,80,0.0,0.0,83,0.00,,---,0.00,VWS V14.01,2013-07-27 05:09:00,
2013-07-27 01:14:00,65.4,60.8,29.85,South,170,2.0,2.3,85,0.00,,---,0.00,VWS V14.01,2013-07-27 05:14:00,
2013-07-27 01:19:00,65.4,60.5,29.85,South,170,3.6,6.0,84,0.00,,---,0.00,VWS V14.01,2013-07-27 05:19:00,
2013-07-27 01:24:00,65.4,60.8,29.85,SW,215,1.3,1.3,85,0.00,,---,0.00,VWS V14.01,2013-07-27 05:24:00,
2013-07-27 01:30:00,65.4,60.8,29.85,South,170,1.3,1.3,85,0.00,,---,0.00,VWS V14.01,2013-07-27 05:30:00,
2013-07-27 01:35:00,65.4,60.8,29.85,SE,125,0.0,1.3,85,0.00,,---,0.00,VWS V14.01,2013-07-27 05:35:00,
2013-07-27 01:40:00,65.4,60.5,29.85,South,170,4.0,4.0,84,0.00,,---,0.00,VWS V14.01,2013-07-27 05:40:00,
2013-07-27 01:45:00,65.4,60.8,29.85,SW,215,0.0,0.0,85,0.00,,---,0.00,VWS V14.01,2013-07-27 05:45:00,
2013-07-27 01:50:00,65.4,60.8,29.85,East,80,0.0,3.3,85,0.00,,---,0.00,VWS V14.01,2013-07-27 05:50:00,
2013-07-27 01:55:00,65.4,60.8,29.85,SE,125,0.0,0.0,85,0.00,,---,0.00,VWS V14.01,2013-07-27 05:55:00,
2013-07-27 02:00:00,65.6,60.6,29.85,South,170,0.0,2.0,84,0.00,,---,0.00,VWS V14.01,2013-07-27 06:00:00,
2013-07-27 02:05:00,65.4,61.1,29.85,South,170,0.0,0.0,86,0.00,,---,0.00,VWS V14.01,2013-07-27 06:05:00,
2013-07-27 02:10:00,65.4,61.1,29.85,South,170,3.3,3.6,86,0.00,,---,0.00,VWS V14.01,2013-07-27 06:10:00,
2013-07-27 02:15:00,65.4,61.1,29.85,South,170,0.0,3.6,86,0.00,,---,0.00,VWS V14.01,2013-07-27 06:15:00,
2013-07-27 02:20:00,65.4,61.1,29.85,West,260,0.0,0.0,86,0.00,,---,0.00,VWS V14.01,2013-07-27 06:20:00,
2013-07-27 02:25:00,65.4,61.1,29.85,WSW,238,1.3,1.3,86,0.00,,---,0.00,VWS V14.01,2013-07-27 06:25:00,
2013-07-27 02:31:00,65.4,61.5,29.85,SE,125,4.0,4.0,87,0.00,,---,0.00,VWS V14.01,2013-07-27 06:31:00,
2013-07-27 02:36:00,65.4,61.1,29.85,East,80,1.7,4.3,86,0.00,,---,0.00,VWS V14.01,2013-07-27 06:36:00,
2013-07-27 02:41:00,65.4,61.5,29.85,WSW,238,0.0,3.6,87,0.00,,---,0.00,VWS V14.01,2013-07-27 06:41:00,
2013-07-27 02:46:00,65.4,61.5,29.85,South,170,1.3,1.3,87,0.00,,---,0.00,VWS V14.01,2013-07-27 06:46:00,
2013-07-27 02:51:00,65.2,61.3,29.85,South,170,0.0,3.0,87,0.00,,---,0.00,VWS V14.01,2013-07-27 06:51:00,
2013-07-27 02:56:00,65.2,61.6,29.85,SE,125,0.0,1.7,88,0.00,,---,0.00,VWS V14.01,2013-07-27 06:56:00,
2013-07-27 03:01:00,65.2,61.6,29.85,South,170,0.0,0.0,88,0.00,,---,0.00,VWS V14.01,2013-07-27 07:01:00,
2013-07-27 03:06:00,65.2,61.6,29.85,South,170,0.0,3.0,88,0.00,,---,0.00,VWS V14.01,2013-07-27 07:06:00,
2013-07-27 03:11:00,65.2,61.6,29.85,South,170,3.6,3.6,88,0.00,,---,0.00,VWS V14.01,2013-07-27 07:11:00,
2013-07-27 03:16:00,65.1,61.4,29.85,SW,215,4.3,4.3,88,0.00,,---,0.00,VWS V14.01,2013-07-27 07:16:00,
2013-07-27 03:21:00,65.1,61.4,29.85,SW,215,3.0,3.0,88,0.00,,---,0.00,VWS V14.01,2013-07-27 07:21:00,
2013-07-27 03:26:00,65.1,61.7,29.85,SW,215,0.0,3.0,89,0.00,,---,0.00,VWS V14.01,2013-07-27 07:26:00,
2013-07-27 03:31:00,64.9,61.6,29.85,South,170,0.0,0.0,89,0.00,,---,0.00,VWS V14.01,2013-07-27 07:31:00,
2013-07-27 03:36:00,64.9,61.6,29.85,South,170,0.0,3.0,89,0.00,,---,0.00,VWS V14.01,2013-07-27 07:36:00,
2013-07-27 03:42:00,64.7,61.4,29.85,West,260,0.0,0.0,89,0.00,,---,0.00,VWS V14.01,2013-07-27 07:42:00,
2013-07-27 03:47:00,64.5,61.2,29.85,South,170,1.3,1.3,89,0.00,,---,0.00,VWS V14.01,2013-07-27 07:47:00,
2013-07-27 03:52:00,64.5,61.5,29.85,SW,215,0.0,0.0,90,0.00,,---,0.00,VWS V14.01,2013-07-27 07:52:00,
2013-07-27 03:57:00,64.3,61.0,29.85,South,170,0.0,0.0,89,0.00,,---,0.00,VWS V14.01,2013-07-27 07:57:00,
2013-07-27 04:02:00,64.2,61.2,29.85,SE,125,0.0,0.0,90,0.00,,---,0.00,VWS V14.01,2013-07-27 08:02:00,
2013-07-27 04:07:00,64.2,61.2,29.85,South,170,0.0,0.0,90,0.00,,---,0.00,VWS V14.01,2013-07-27 08:07:00,
2013-07-27 04:12:00,64.0,61.0,29.82,South,170,0.0,0.0,90,0.00,,---,0.00,VWS V14.01,2013-07-27 08:12:00,
2013-07-27 04:17:00,63.8,60.8,29.82,South,170,0.0,4.0,90,0.00,,---,0.00,VWS V14.01,2013-07-27 08:17:00,
2013-07-27 04:22:00,63.8,60.8,29.82,South,170,0.0,0.0,90,0.00,,---,0.00,VWS V14.01,2013-07-27 08:22:00,
2013-07-27 04:28:00,63.8,60.8,29.82,South,170,0.0,0.0,90,0.00,,---,0.00,VWS V14.01,2013-07-27 08:28:00,
2013-07-27 04:33:00,63.6,60.6,29.82,SE,125,1.7,1.7,90,0.00,,---,0.00,VWS V14.01,2013-07-27 08:33:00,
2013-07-27 04:38:00,63.6,60.6,29.82,SE,125,0.0,3.0,90,0.00,,---,0.00,VWS V14.01,2013-07-27 08:38:00,
2013-07-27 04:43:00,63.6,60.6,29.82,South,170,1.7,1.7,90,0.00,,---,0.00,VWS V14.01,2013-07-27 08:43:00,
2013-07-27 04:48:00,63.6,60.6,29.82,South,170,0.0,0.0,90,0.00,,---,0.00,VWS V14.01,2013-07-27 08:48:00,
2013-07-27 04:53:00,63.6,61.0,29.82,SW,215,0.0,0.0,91,0.00,,---,0.00,VWS V14.01,2013-07-27 08:53:00,
2013-07-27 04:58:00,63.6,61.0,29.82,South,170,0.0,4.3,91,0.00,,---,0.00,VWS V14.01,2013-07-27 08:58:00,
2013-07-27 05:03:00,63.6,61.0,29.82,South,170,0.0,0.0,91,0.00,,---,0.00,VWS V14.01,2013-07-27 09:03:00,
2013-07-27 05:08:00,63.8,61.1,29.82,South,170,0.0,0.0,91,0.00,,---,0.00,VWS V14.01,2013-07-27 09:08:00,
2013-07-27 05:13:00,63.8,61.4,29.82,West,260,0.0,2.3,92,0.00,,---,0.00,VWS V14.01,2013-07-27 09:13:00,
2013-07-27 05:18:00,64.0,61.3,29.82,South,170,6.0,6.0,91,0.00,,---,0.00,VWS V14.01,2013-07-27 09:18:00,
2013-07-27 05:23:00,64.0,61.6,29.82,South,170,0.0,4.0,92,0.00,,---,0.00,VWS V14.01,2013-07-27 09:23:00,
2013-07-27 05:29:00,64.0,61.6,29.82,South,170,0.0,0.0,92,0.00,,---,0.00,VWS V14.01,2013-07-27 09:29:00,
2013-07-27 05:34:00,64.2,61.8,29.82,SE,125,0.0,0.0,92,0.00,,---,0.00,VWS V14.01,2013-07-27 09:34:00,
2013-07-27 05:39:00,64.2,61.8,29.82,South,170,0.0,0.0,92,0.00,,---,0.00,VWS V14.01,2013-07-27 09:39:00,
2013-07-27 05:44:00,64.2,61.8,29.82,NW,305,0.0,0.0,92,0.00,,---,0.00,VWS V14.01,2013-07-27 09:44:00,
2013-07-27 05:49:00,64.2,61.8,29.82,ESE,102,0.0,0.0,92,0.00,,---,0.00,VWS V14.01,2013-07-27 09:49:00,
2013-07-27 05:54:00,64.0,61.6,29.82,West,260,0.0,0.0,92,0.00,,---,0.00,VWS V14.01,2013-07-27 09:54:00,
2013-07-27 05:59:00,64.0,61.6,29.82,South,170,0.0,0.0,92,0.00,,---,0.00,VWS V14.01,2013-07-27 09:59:00,
2013-07-27 06:04:00,63.8,61.4,29.82,South,170,0.0,0.0,92,0.00,,---,0.00,VWS V14.01,2013-07-27 10:04:00,
2013-07-27 06:09:00,63.8,61.4,29.82,South,170,0.0,0.0,92,0.00,,---,0.00,VWS V14.01,2013-07-27 10:09:00,
2013-07-27 06:14:00,63.8,61.4,29.82,ESE,102,0.0,0.0,92,0.00,,---,0.00,VWS V14.01,2013-07-27 10:14:00,
2013-07-27 06:19:00,63.8,61.4,29.82,SW,215,0.0,0.0,92,0.00,,---,0.00,VWS V14.01,2013-07-27 10:19:00,
2013-07-27 06:24:00,63.8,61.7,29.82,SW,215,0.0,0.0,93,0.00,,---,0.00,VWS V14.01,2013-07-27 10:24:00,
2013-07-27 06:29:00,64.0,61.9,29.82,SW,215,0.0,0.0,93,0.00,,---,0.00,VWS V14.01,2013-07-27 10:29:00,
2013-07-27 06:35:00,64.0,61.9,29.82,South,170,0.0,0.0,93,0.00,,---,0.00,VWS V14.01,2013-07-27 10:35:00,
2013-07-27 06:40:00,64.0,61.9,29.82,South,170,0.0,0.0,93,0.00,,---,0.00,VWS V14.01,2013-07-27 10:40:00,
2013-07-27 06:45:00,64.0,61.6,29.82,SE,125,0.0,1.3,92,0.00,,---,0.00,VWS V14.01,2013-07-27 10:45:00,
2013-07-27 06:50:00,64.0,61.6,29.82,SE,125,0.0,0.0,92,0.00,,---,0.00,VWS V14.01,2013-07-27 10:50:00,
2013-07-27 06:55:00,64.0,61.6,29.82,South,170,0.0,0.0,92,0.00,,---,0.00,VWS V14.01,2013-07-27 10:55:00,
2013-07-27 07:00:00,64.0,61.9,29.82,South,170,0.0,0.0,93,0.00,,---,0.00,VWS V14.01,2013-07-27 11:00:00,
2013-07-27 07:05:00,64.0,61.6,29.82,SW,215,0.0,0.0,92,0.00,,---,0.00,VWS V14.01,2013-07-27 11:05:00,
2013-07-27 07:10:00,64.0,61.6,29.82,South,170,0.0,0.0,92,0.00,,---,0.00,VWS V14.01,2013-07-27 11:10:00,
2013-07-27 07:15:00,64.2,62.1,29.82,South,170,0.0,0.0,93,0.00,,---,0.00,VWS V14.01,2013-07-27 11:15:00,
2013-07-27 07:20:00,64.2,62.1,29.82,South,170,0.0,0.0,93,0.00,,---,0.00,VWS V14.01,2013-07-27 11:20:00,
2013-07-27 07:25:00,64.3,62.0,29.82,South,170,0.0,0.0,92,0.00,,---,0.00,VWS V14.01,2013-07-27 11:25:00,
2013-07-27 07:30:00,64.3,62.0,29.85,South,170,0.0,0.0,92,0.00,,---,0.00,VWS V14.01,2013-07-27 11:30:00,
2013-07-27 07:35:00,64.3,62.3,29.85,SW,215,0.0,0.0,93,0.00,,---,0.00,VWS V14.01,2013-07-27 11:35:00,
2013-07-27 07:41:00,64.5,62.5,29.85,SW,215,0.0,0.0,93,0.00,,---,0.00,VWS V14.01,2013-07-27 11:41:00,
2013-07-27 07:46:00,64.7,62.6,29.85,South,170,0.0,0.0,93,0.00,,---,0.00,VWS V14.01,2013-07-27 11:46:00,
2013-07-27 07:49:00,64.7,62.6,29.85,SW,215,0.0,0.0,93,0.00,,---,0.00,VWS V14.01,2013-07-27 11:49:00,
2013-07-27 07:54:00,64.9,62.8,29.85,SW,215,0.0,0.0,93,0.00,,---,0.00,VWS V14.01,2013-07-27 11:54:00,
2013-07-27 07:59:00,64.9,62.8,29.85,NW,305,0.0,0.0,93,0.00,,---,0.00,VWS V14.01,2013-07-27 11:59:00,
2013-07-27 08:05:00,65.1,63.0,29.85,NW,305,0.0,0.0,93,0.00,,---,0.00,VWS V14.01,2013-07-27 12:05:00,
2013-07-27 08:10:00,65.2,63.2,29.85,West,260,0.0,0.0,93,0.00,,---,0.00,VWS V14.01,2013-07-27 12:10:00,
2013-07-27 08:15:00,65.2,63.2,29.82,SW,215,0.0,0.0,93,0.00,,---,0.00,VWS V14.01,2013-07-27 12:15:00,
2013-07-27 08:20:00,65.4,63.0,29.82,NW,305,0.0,0.0,92,0.00,,---,0.00,VWS V14.01,2013-07-27 12:20:00,
2013-07-27 08:25:00,65.4,63.0,29.82,NW,305,0.0,2.3,92,0.00,,---,0.00,VWS V14.01,2013-07-27 12:25:00,
2013-07-27 08:30:00,65.6,63.2,29.82,WNW,282,3.3,4.3,92,0.00,,---,0.00,VWS V14.01,2013-07-27 12:30:00,
2013-07-27 08:35:00,65.8,63.4,29.82,NW,305,4.6,4.6,92,0.00,,---,0.00,VWS V14.01,2013-07-27 12:35:00,
2013-07-27 08:40:00,65.8,63.1,29.82,NW,305,1.3,1.3,91,0.00,,---,0.00,VWS V14.01,2013-07-27 12:40:00,
2013-07-27 08:45:00,66.1,63.4,29.82,West,260,0.0,0.0,91,0.00,,---,0.00,VWS V14.01,2013-07-27 12:45:00,
2013-07-27 08:50:00,66.5,63.8,29.82,West,260,0.0,3.0,91,0.00,,---,0.00,VWS V14.01,2013-07-27 12:50:00,
2013-07-27 08:55:00,66.5,63.5,29.82,NW,305,4.6,4.6,90,0.00,,---,0.00,VWS V14.01,2013-07-27 12:55:00,
2013-07-27 09:01:00,66.3,63.3,29.85,NW,305,0.0,3.0,90,0.00,,---,0.00,VWS V14.01,2013-07-27 13:01:00,
2013-07-27 09:06:00,66.3,63.0,29.85,NW,305,0.0,3.0,89,0.00,,---,0.00,VWS V14.01,2013-07-27 13:06:00,
2013-07-27 09:11:00,66.5,63.2,29.85,NW,305,1.3,1.3,89,0.00,,---,0.00,VWS V14.01,2013-07-27 13:11:00,
2013-07-27 09:17:00,66.9,63.5,29.82,West,260,2.0,4.0,89,0.00,,---,0.00,VWS V14.01,2013-07-27 13:17:00,
2013-07-27 09:22:00,66.9,63.2,29.82,NW,305,4.6,7.3,88,0.00,,---,0.00,VWS V14.01,2013-07-27 13:22:00,
2013-07-27 09:27:00,66.9,63.2,29.82,NW,305,4.0,5.3,88,0.00,,---,0.00,VWS V14.01,2013-07-27 13:27:00,
2013-07-27 09:32:00,66.5,62.2,29.82,SE,125,1.3,1.3,86,0.00,,---,0.00,VWS V14.01,2013-07-27 13:32:00,
2013-07-27 09:37:00,66.7,62.7,29.82,NE,35,4.3,4.3,87,0.00,,---,0.00,VWS V14.01,2013-07-27 13:37:00,
2013-07-27 09:42:00,66.7,62.7,29.82,SW,215,1.7,1.7,87,0.00,,---,0.00,VWS V14.01,2013-07-27 13:42:00,
2013-07-27 09:47:00,66.7,62.4,29.82,SW,215,1.7,1.7,86,0.00,,---,0.00,VWS V14.01,2013-07-27 13:47:00,
2013-07-27 09:52:00,67.0,62.7,29.82,WNW,282,2.0,2.0,86,0.00,,---,0.00,VWS V14.01,2013-07-27 13:52:00,
2013-07-27 09:57:00,67.2,62.9,29.82,West,260,1.3,1.3,86,0.00,,---,0.00,VWS V14.01,2013-07-27 13:57:00,
2013-07-27 10:02:00,67.4,62.4,29.82,West,260,1.3,1.3,84,0.00,,---,0.00,VWS V14.01,2013-07-27 14:02:00,
2013-07-27 10:07:00,67.8,62.8,29.82,NW,305,0.0,0.0,84,0.00,,---,0.00,VWS V14.01,2013-07-27 14:07:00,
2013-07-27 10:13:00,67.6,62.2,29.82,NW,305,0.0,0.0,83,0.00,,---,0.00,VWS V14.01,2013-07-27 14:13:00,
2013-07-27 10:18:00,67.4,62.1,29.82,NE,35,2.0,2.0,83,0.00,,---,0.00,VWS V14.01,2013-07-27 14:18:00,
2013-07-27 10:23:00,67.2,62.2,29.82,NE,35,2.0,2.0,84,0.00,,---,0.00,VWS V14.01,2013-07-27 14:23:00,
2013-07-27 10:28:00,66.9,61.9,29.82,NE,35,2.0,2.0,84,0.00,,---,0.00,VWS V14.01,2013-07-27 14:28:00,
2013-07-27 10:33:00,66.5,61.5,29.82,NE,35,2.0,2.0,84,0.00,,---,0.00,VWS V14.01,2013-07-27 14:33:00,
2013-07-27 10:38:00,66.1,61.2,29.82,NE,35,2.0,2.0,84,0.00,,---,0.00,VWS V14.01,2013-07-27 14:38:00,
2013-07-27 10:43:00,65.8,60.8,29.82,NE,35,2.0,2.0,84,0.00,,---,0.00,VWS V14.01,2013-07-27 14:43:00,
2013-07-27 10:48:00,65.6,60.6,29.82,NE,35,2.0,2.0,84,0.00,,---,0.00,VWS V14.01,2013-07-27 14:48:00,
2013-07-27 10:53:00,65.6,60.6,29.82,NE,35,2.0,2.0,84,0.00,,---,0.00,VWS V14.01,2013-07-27 14:53:00,
2013-07-27 10:58:00,65.6,60.6,29.82,NE,35,2.0,2.0,84,0.00,,---,0.00,VWS V14.01,2013-07-27 14:58:00,
2013-07-27 11:03:00,65.6,60.6,29.82,West,260,2.3,2.3,84,0.00,,---,0.00,VWS V14.01,2013-07-27 15:03:00,
2013-07-27 11:08:00,65.6,60.3,29.82,West,260,5.6,5.6,83,0.00,,---,0.00,VWS V14.01,2013-07-27 15:08:00,
2013-07-27 11:13:00,65.6,60.0,29.82,West,260,5.6,5.6,82,0.00,,---,0.00,VWS V14.01,2013-07-27 15:13:00,
2013-07-27 11:18:00,65.6,60.0,29.82,WNW,282,3.0,3.0,82,0.00,,---,0.00,VWS V14.01,2013-07-27 15:18:00,
2013-07-27 11:23:00,65.8,60.1,29.82,NW,305,4.0,4.0,82,0.00,,---,0.00,VWS V14.01,2013-07-27 15:23:00,
2013-07-27 11:28:00,66.0,60.3,29.82,North,350,2.3,2.3,82,0.00,,---,0.00,VWS V14.01,2013-07-27 15:28:00,
2013-07-27 11:34:00,66.5,60.8,29.82,WNW,282,6.6,6.6,82,0.00,,---,0.00,VWS V14.01,2013-07-27 15:34:00,
2013-07-27 11:39:00,66.9,61.2,29.82,North,350,1.7,2.0,82,0.00,,---,0.00,VWS V14.01,2013-07-27 15:39:00,
2013-07-27 11:44:00,67.0,61.4,29.82,NW,305,0.0,3.0,82,0.00,,---,0.00,VWS V14.01,2013-07-27 15:44:00,
2013-07-27 11:49:00,67.2,61.2,29.82,NW,305,0.0,1.7,81,0.00,,---,0.00,VWS V14.01,2013-07-27 15:49:00,
2013-07-27 11:54:00,67.4,61.0,29.82,North,350,5.3,5.3,80,0.00,,---,0.00,VWS V14.01,2013-07-27 15:54:00,
2013-07-27 11:59:00,67.6,60.1,29.82,NW,305,3.6,5.6,77,0.00,,---,0.00,VWS V14.01,2013-07-27 15:59:00,
2013-07-27 12:04:00,67.9,60.8,29.82,NW,305,3.6,3.6,78,0.00,,---,0.00,VWS V14.01,2013-07-27 16:04:00,
2013-07-27 12:09:00,67.9,60.5,29.82,North,350,1.3,2.0,77,0.00,,---,0.00,VWS V14.01,2013-07-27 16:09:00,
2013-07-27 12:15:00,68.1,60.3,29.82,NW,305,5.0,5.0,76,0.00,,---,0.00,VWS V14.01,2013-07-27 16:15:00,
2013-07-27 12:20:00,68.1,60.3,29.82,WNW,282,6.3,6.3,76,0.00,,---,0.00,VWS V14.01,2013-07-27 16:20:00,
2013-07-27 12:25:00,68.3,60.1,29.82,North,350,3.6,3.6,75,0.00,,---,0.00,VWS V14.01,2013-07-27 16:25:00,
2013-07-27 12:30:00,68.5,60.2,29.82,NW,305,3.0,4.0,75,0.00,,---,0.00,VWS V14.01,2013-07-27 16:30:00,
2013-07-27 12:35:00,68.5,60.2,29.82,NW,305,1.7,1.7,75,0.00,,---,0.00,VWS V14.01,2013-07-27 16:35:00,
2013-07-27 12:40:00,68.3,60.1,29.82,NW,305,1.7,1.7,75,0.00,,---,0.00,VWS V14.01,2013-07-27 16:40:00,
2013-07-27 12:45:00,68.5,59.9,29.82,West,260,4.0,4.0,74,0.00,,---,0.00,VWS V14.01,2013-07-27 16:45:00,
2013-07-27 12:51:00,68.5,59.5,29.82,West,260,4.0,4.0,73,0.00,,---,0.00,VWS V14.01,2013-07-27 16:51:00,
2013-07-27 12:56:00,68.5,59.9,29.82,West,260,4.0,4.0,74,0.00,,---,0.00,VWS V14.01,2013-07-27 16:56:00,
2013-07-27 13:01:00,69.2,61.0,29.82,West,260,1.7,1.7,75,0.00,,---,0.00,VWS V14.01,2013-07-27 17:01:00,
2013-07-27 13:06:00,69.4,59.6,29.82,North,350,7.9,7.9,71,0.00,,---,0.00,VWS V14.01,2013-07-27 17:06:00,
2013-07-27 13:11:00,69.0,59.6,29.82,North,350,7.9,7.9,72,0.00,,---,0.00,VWS V14.01,2013-07-27 17:11:00,
2013-07-27 13:16:00,68.7,58.9,29.82,NW,305,2.0,2.0,71,0.00,,---,0.00,VWS V14.01,2013-07-27 17:16:00,
2013-07-27 13:22:00,68.5,59.1,29.82,West,260,2.3,2.3,72,0.00,,---,0.00,VWS V14.01,2013-07-27 17:22:00,
2013-07-27 13:27:00,68.3,58.9,29.82,West,260,2.3,2.3,72,0.00,,---,0.00,VWS V14.01,2013-07-27 17:27:00,
2013-07-27 13:32:00,68.1,58.8,29.82,NW,305,4.3,4.3,72,0.00,,---,0.00,VWS V14.01,2013-07-27 17:32:00,
2013-07-27 13:37:00,67.9,58.2,29.82,NW,305,4.3,4.3,71,0.00,,---,0.00,VWS V14.01,2013-07-27 17:37:00,
2013-07-27 13:42:00,68.1,58.4,29.82,NW,305,4.3,4.3,71,0.00,,---,0.00,VWS V14.01,2013-07-27 17:42:00,
2013-07-27 13:48:00,68.1,58.4,29.82,North,350,4.0,4.0,71,0.00,,---,0.00,VWS V14.01,2013-07-27 17:48:00,
2013-07-27 13:53:00,68.7,58.9,29.82,East,80,3.0,5.3,71,0.00,,---,0.00,VWS V14.01,2013-07-27 17:53:00,
2013-07-27 13:58:00,68.7,58.9,29.79,East,80,3.0,3.0,71,0.00,,---,0.00,VWS V14.01,2013-07-27 17:58:00,
2013-07-27 14:03:00,68.1,57.6,29.79,East,80,3.0,3.0,69,0.00,,---,0.00,VWS V14.01,2013-07-27 18:03:00,
2013-07-27 14:08:00,68.1,58.4,29.79,NE,35,4.0,4.0,71,0.00,,---,0.00,VWS V14.01,2013-07-27 18:08:00,
2013-07-27 14:13:00,68.5,58.7,29.82,NW,305,7.0,7.0,71,0.00,,---,0.00,VWS V14.01,2013-07-27 18:13:00,
2013-07-27 14:15:00,68.8,58.7,29.82,NW,305,3.3,3.3,70,0.00,,---,0.00,VWS V14.01,2013-07-27 18:15:00,
2013-07-27 14:20:00,68.8,58.7,29.82,West,260,5.0,8.3,70,0.00,,---,0.00,VWS V14.01,2013-07-27 18:20:00,
2013-07-27 14:25:00,68.8,58.7,29.82,NW,305,4.6,4.6,70,0.00,,---,0.00,VWS V14.01,2013-07-27 18:25:00,
2013-07-27 14:30:00,68.5,57.9,29.82,North,350,3.0,3.0,69,0.00,,---,0.00,VWS V14.01,2013-07-27 18:30:00,
2013-07-27 14:35:00,69.4,58.8,29.82,North,350,2.3,2.3,69,0.00,,---,0.00,VWS V14.01,2013-07-27 18:35:00,
2013-07-27 14:40:00,68.8,57.9,29.82,North,350,2.3,2.3,68,0.00,,---,0.00,VWS V14.01,2013-07-27 18:40:00,
2013-07-27 14:45:00,69.4,58.4,29.82,WNW,282,6.0,6.0,68,0.00,,---,0.00,VWS V14.01,2013-07-27 18:45:00,
2013-07-27 14:50:00,68.5,57.5,29.82,WNW,282,4.3,6.0,68,0.00,,---,0.00,VWS V14.01,2013-07-27 18:50:00,
2013-07-27 14:55:00,69.4,58.0,29.82,NW,305,1.7,1.7,67,0.00,,---,0.00,VWS V14.01,2013-07-27 18:55:00,
2013-07-27 15:01:00,69.0,58.0,29.82,NW,305,1.7,1.7,68,0.00,,---,0.00,VWS V14.01,2013-07-27 19:01:00,
2013-07-27 15:06:00,68.8,57.9,29.82,NW,305,1.7,1.7,68,0.00,,---,0.00,VWS V14.01,2013-07-27 19:06:00,
2013-07-27 15:11:00,68.1,57.2,29.82,North,350,4.3,4.3,68,0.00,,---,0.00,VWS V14.01,2013-07-27 19:11:00,
2013-07-27 15:16:00,67.6,56.7,29.82,North,350,4.3,4.3,68,0.00,,---,0.00,VWS V14.01,2013-07-27 19:16:00,
2013-07-27 15:21:00,67.8,57.2,29.82,North,350,10.6,10.6,69,0.00,,---,0.00,VWS V14.01,2013-07-27 19:21:00,
2013-07-27 15:26:00,67.6,56.7,29.82,NW,305,5.3,5.3,68,0.00,,---,0.00,VWS V14.01,2013-07-27 19:26:00,
2013-07-27 15:31:00,67.6,56.7,29.82,North,350,5.6,5.6,68,0.00,,---,0.00,VWS V14.01,2013-07-27 19:31:00,
2013-07-27 15:37:00,67.0,56.1,29.82,NW,305,4.3,4.3,68,0.00,,---,0.00,VWS V14.01,2013-07-27 19:37:00,
2013-07-27 15:42:00,66.7,55.8,29.82,NW,305,5.6,7.9,68,0.00,,---,0.00,VWS V14.01,2013-07-27 19:42:00,
2013-07-27 15:47:00,66.5,56.0,29.82,NW,305,6.0,6.0,69,0.00,,---,0.00,VWS V14.01,2013-07-27 19:47:00,
2013-07-27 15:52:00,66.3,55.9,29.82,NW,305,3.6,6.0,69,0.00,,---,0.00,VWS V14.01,2013-07-27 19:52:00,
2013-07-27 15:57:00,65.8,55.3,29.82,North,350,7.3,7.3,69,0.00,,---,0.00,VWS V14.01,2013-07-27 19:57:00,
2013-07-27 16:02:00,65.2,55.2,29.82,North,350,7.3,7.3,70,0.00,,---,0.00,VWS V14.01,2013-07-27 20:02:00,
2013-07-27 16:07:00,65.1,55.0,29.82,North,350,7.3,7.3,70,0.00,,---,0.00,VWS V14.01,2013-07-27 20:07:00,
2013-07-27 16:12:00,64.2,54.6,29.85,North,350,7.3,7.3,71,0.00,,---,0.00,VWS V14.01,2013-07-27 20:12:00,
2013-07-27 16:17:00,63.3,53.7,29.85,North,350,7.3,7.3,71,0.00,,---,0.00,VWS V14.01,2013-07-27 20:17:00,
2013-07-27 16:23:00,62.4,53.2,29.85,North,350,7.3,7.3,72,0.00,,---,0.00,VWS V14.01,2013-07-27 20:23:00,
2013-07-27 16:28:00,61.8,53.1,29.85,North,350,3.6,3.6,73,0.00,,---,0.00,VWS V14.01,2013-07-27 20:28:00,
2013-07-27 16:33:00,61.5,53.1,29.85,North,350,7.0,7.0,74,0.00,,---,0.00,VWS V14.01,2013-07-27 20:33:00,
2013-07-27 16:38:00,61.1,53.1,29.85,North,350,7.0,7.0,75,0.00,,---,0.00,VWS V14.01,2013-07-27 20:38:00,
2013-07-27 16:43:00,61.3,53.3,29.85,North,350,4.6,4.6,75,0.00,,---,0.00,VWS V14.01,2013-07-27 20:43:00,
2013-07-27 16:48:00,61.3,52.9,29.85,NW,305,4.3,4.3,74,0.00,,---,0.00,VWS V14.01,2013-07-27 20:48:00,
2013-07-27 16:53:00,60.7,52.4,29.85,West,260,4.0,4.0,74,0.00,,---,0.00,VWS V14.01,2013-07-27 20:53:00,
2013-07-27 16:58:00,60.6,51.9,29.85,NW,305,14.6,14.6,73,0.00,,---,0.00,VWS V14.01,2013-07-27 20:58:00,
2013-07-27 17:03:00,60.6,52.2,29.85,NW,305,14.6,14.6,74,0.00,,---,0.00,VWS V14.01,2013-07-27 21:03:00,
2013-07-27 17:08:00,60.6,52.2,29.85,West,260,6.3,6.3,74,0.00,,---,0.00,VWS V14.01,2013-07-27 21:08:00,
2013-07-27 17:13:00,61.5,53.1,29.85,NW,305,4.6,4.6,74,0.00,,---,0.00,VWS V14.01,2013-07-27 21:13:00,
2013-07-27 17:18:00,61.5,52.7,29.85,NW,305,4.6,4.6,73,0.00,,---,0.00,VWS V14.01,2013-07-27 21:18:00,
2013-07-27 17:23:00,61.1,52.4,29.85,NW,305,4.6,4.6,73,0.00,,---,0.00,VWS V14.01,2013-07-27 21:23:00,
2013-07-27 17:29:00,61.1,52.0,29.85,NW,305,4.6,4.6,72,0.00,,---,0.00,VWS V14.01,2013-07-27 21:29:00,
2013-07-27 17:34:00,61.1,52.4,29.85,NW,305,4.6,4.6,73,0.00,,---,0.00,VWS V14.01,2013-07-27 21:34:00,
2013-07-27 17:39:00,61.3,52.6,29.85,NW,305,4.6,4.6,73,0.00,,---,0.00,VWS V14.01,2013-07-27 21:39:00,
2013-07-27 17:44:00,61.3,52.6,29.85,NW,305,2.3,4.6,73,0.00,,---,0.00,VWS V14.01,2013-07-27 21:44:00,
2013-07-27 17:49:00,61.1,52.4,29.85,NW,305,2.3,2.3,73,0.00,,---,0.00,VWS V14.01,2013-07-27 21:49:00,
2013-07-27 17:54:00,61.1,52.4,29.85,NW,305,2.3,2.3,73,0.00,,---,0.00,VWS V14.01,2013-07-27 21:54:00,
2013-07-27 17:59:00,60.7,52.0,29.85,NW,305,2.3,2.3,73,0.00,,---,0.00,VWS V14.01,2013-07-27 21:59:00,
2013-07-27 18:05:00,60.7,52.0,29.85,NW,305,2.3,2.3,73,0.00,,---,0.00,VWS V14.01,2013-07-27 22:05:00,
2013-07-27 18:10:00,60.9,52.2,29.85,NW,305,2.3,2.3,73,0.00,,---,0.00,VWS V14.01,2013-07-27 22:10:00,
2013-07-27 18:15:00,61.1,52.0,29.85,NW,305,2.3,2.3,72,0.00,,---,0.00,VWS V14.01,2013-07-27 22:15:00,
2013-07-27 18:20:00,61.1,52.0,29.85,NW,305,2.3,2.3,72,0.00,,---,0.00,VWS V14.01,2013-07-27 22:20:00,
2013-07-27 18:25:00,61.1,52.0,29.85,NW,305,2.3,2.3,72,0.00,,---,0.00,VWS V14.01,2013-07-27 22:25:00,
2013-07-27 18:30:00,61.1,52.0,29.85,NW,305,2.3,2.3,72,0.00,,---,0.00,VWS V14.01,2013-07-27 22:30:00,
2013-07-27 18:35:00,61.1,52.0,29.85,NW,305,2.3,2.3,72,0.00,,---,0.00,VWS V14.01,2013-07-27 22:35:00,
2013-07-27 18:40:00,61.3,52.2,29.85,NW,305,2.3,2.3,72,0.00,,---,0.00,VWS V14.01,2013-07-27 22:40:00,
2013-07-27 18:45:00,61.1,51.6,29.85,NW,305,2.3,2.3,71,0.00,,---,0.00,VWS V14.01,2013-07-27 22:45:00,
2013-07-27 18:50:00,60.9,51.1,29.85,NW,305,2.3,2.3,70,0.00,,---,0.00,VWS V14.01,2013-07-27 22:50:00,
2013-07-27 18:55:00,60.9,51.1,29.85,NW,305,2.3,2.3,70,0.00,,---,0.00,VWS V14.01,2013-07-27 22:55:00,
2013-07-27 19:01:00,60.7,51.3,29.85,NW,305,2.3,2.3,71,0.00,,---,0.00,VWS V14.01,2013-07-27 23:01:00,
2013-07-27 19:06:00,60.9,51.5,29.85,NW,305,2.3,2.3,71,0.00,,---,0.00,VWS V14.01,2013-07-27 23:06:00,
2013-07-27 19:11:00,60.9,51.5,29.85,NW,305,2.3,2.3,71,0.00,,---,0.00,VWS V14.01,2013-07-27 23:11:00,
2013-07-27 19:16:00,60.7,51.3,29.85,NW,305,2.3,2.3,71,0.00,,---,0.00,VWS V14.01,2013-07-27 23:16:00,
2013-07-27 19:22:00,60.6,51.1,29.85,NW,305,2.3,2.3,71,0.00,,---,0.00,VWS V14.01,2013-07-27 23:22:00,
2013-07-27 19:27:00,60.4,50.6,29.85,NW,305,2.3,2.3,70,0.00,,---,0.00,VWS V14.01,2013-07-27 23:27:00,
2013-07-27 19:32:00,60.2,50.8,29.85,NW,305,2.3,2.3,71,0.00,,---,0.00,VWS V14.01,2013-07-27 23:32:00,
2013-07-27 19:37:00,60.2,50.8,29.85,NW,305,2.3,2.3,71,0.00,,---,0.00,VWS V14.01,2013-07-27 23:37:00,
2013-07-27 19:42:00,60.2,50.8,29.85,NW,305,2.3,2.3,71,0.00,,---,0.00,VWS V14.01,2013-07-27 23:42:00,
2013-07-27 19:47:00,60.0,50.6,29.85,NW,305,2.3,2.3,71,0.00,,---,0.00,VWS V14.01,2013-07-27 23:47:00,
2013-07-27 19:52:00,59.8,50.4,29.85,NW,305,2.3,2.3,71,0.00,,---,0.00,VWS V14.01,2013-07-27 23:52:00,
2013-07-27 19:57:00,59.8,50.4,29.85,NW,305,2.3,2.3,71,0.00,,---,0.00,VWS V14.01,2013-07-27 23:57:00,
2013-07-27 20:03:00,59.5,50.1,29.85,NW,305,2.3,2.3,71,0.00,,---,0.00,VWS V14.01,2013-07-28 00:03:00,
2013-07-27 20:08:00,59.5,50.1,29.85,NW,305,2.3,2.3,71,0.00,,---,0.00,VWS V14.01,2013-07-28 00:08:00,
2013-07-27 20:13:00,59.3,49.9,29.85,NW,305,2.3,2.3,71,0.00,,---,0.00,VWS V14.01,2013-07-28 00:13:00,
2013-07-27 20:18:00,59.3,49.9,29.85,NW,305,2.3,2.3,71,0.00,,---,0.00,VWS V14.01,2013-07-28 00:18:00,
2013-07-27 20:23:00,59.1,49.7,29.85,NW,305,2.3,2.3,71,0.00,,---,0.00,VWS V14.01,2013-07-28 00:23:00,
2013-07-27 20:28:00,58.9,49.6,29.85,NW,305,2.3,2.3,71,0.00,,---,0.00,VWS V14.01,2013-07-28 00:28:00,
2013-07-27 20:33:00,58.9,49.6,29.85,NW,305,2.3,2.3,71,0.00,,---,0.00,VWS V14.01,2013-07-28 00:33:00,
2013-07-27 20:38:00,58.9,49.6,29.85,NW,305,2.3,2.3,71,0.00,,---,0.00,VWS V14.01,2013-07-28 00:38:00,
2013-07-27 20:44:00,58.8,49.4,29.85,NW,305,2.0,2.0,71,0.00,,---,0.00,VWS V14.01,2013-07-28 00:44:00,
2013-07-27 20:49:00,58.6,49.2,29.85,West,260,3.3,5.0,71,0.00,,---,0.00,VWS V14.01,2013-07-28 00:49:00,
2013-07-27 20:54:00,58.4,49.0,29.85,NW,305,1.3,1.3,71,0.00,,---,0.00,VWS V14.01,2013-07-28 00:54:00,
2013-07-27 20:59:00,58.4,49.0,29.85,NW,305,2.3,2.3,71,0.00,,---,0.00,VWS V14.01,2013-07-28 00:59:00,
2013-07-27 21:04:00,58.4,49.0,29.85,NW,305,4.0,4.0,71,0.00,,---,0.00,VWS V14.01,2013-07-28 01:04:00,
2013-07-27 21:09:00,58.2,48.9,29.85,NW,305,4.0,4.0,71,0.00,,---,0.00,VWS V14.01,2013-07-28 01:09:00,
2013-07-27 21:14:00,58.0,48.3,29.88,West,260,4.6,4.6,70,0.00,,---,0.00,VWS V14.01,2013-07-28 01:14:00,
2013-07-27 21:19:00,58.0,48.7,29.88,NW,305,1.7,1.7,71,0.00,,---,0.00,VWS V14.01,2013-07-28 01:19:00,
2013-07-27 21:24:00,58.0,48.7,29.88,NW,305,3.0,3.6,71,0.00,,---,0.00,VWS V14.01,2013-07-28 01:24:00,
2013-07-27 21:30:00,57.9,48.5,29.88,NW,305,4.3,5.0,71,0.00,,---,0.00,VWS V14.01,2013-07-28 01:30:00,
2013-07-27 21:35:00,57.7,48.4,29.88,WNW,282,0.0,3.0,71,0.00,,---,0.00,VWS V14.01,2013-07-28 01:35:00,
2013-07-27 21:40:00,57.7,48.4,29.88,NW,305,0.0,5.3,71,0.00,,---,0.00,VWS V14.01,2013-07-28 01:40:00,
2013-07-27 21:45:00,57.5,47.8,29.85,NW,305,0.0,0.0,70,0.00,,---,0.00,VWS V14.01,2013-07-28 01:45:00,
2013-07-27 21:50:00,57.5,47.8,29.85,West,260,0.0,1.3,70,0.00,,---,0.00,VWS V14.01,2013-07-28 01:50:00,
2013-07-27 21:55:00,57.3,47.6,29.85,NW,305,0.0,0.0,70,0.00,,---,0.00,VWS V14.01,2013-07-28 01:55:00,
2013-07-27 22:00:00,57.5,48.2,29.88,North,350,5.0,5.0,71,0.00,,---,0.00,VWS V14.01,2013-07-28 02:00:00,
2013-07-27 22:05:00,57.3,47.6,29.88,North,350,5.0,5.0,70,0.00,,---,0.00,VWS V14.01,2013-07-28 02:05:00,
2013-07-27 22:10:00,57.1,47.5,29.88,North,350,5.0,5.0,70,0.00,,---,0.00,VWS V14.01,2013-07-28 02:10:00,
2013-07-27 22:15:00,57.0,47.7,29.85,North,350,5.0,5.0,71,0.00,,---,0.00,VWS V14.01,2013-07-28 02:15:00,
2013-07-27 22:21:00,57.0,47.7,29.85,North,350,5.0,5.0,71,0.00,,---,0.00,VWS V14.01,2013-07-28 02:21:00,
2013-07-27 22:26:00,57.0,48.0,29.85,North,350,5.0,5.0,72,0.00,,---,0.00,VWS V14.01,2013-07-28 02:26:00,
2013-07-27 22:31:00,56.8,47.9,29.88,NW,305,0.0,5.0,72,0.00,,---,0.00,VWS V14.01,2013-07-28 02:31:00,
2013-07-27 22:36:00,57.0,48.0,29.88,NW,305,0.0,0.0,72,0.00,,---,0.00,VWS V14.01,2013-07-28 02:36:00,
2013-07-27 22:41:00,57.0,48.4,29.88,NW,305,0.0,0.0,73,0.00,,---,0.00,VWS V14.01,2013-07-28 02:41:00,
2013-07-27 22:46:00,56.8,47.9,29.85,NW,305,0.0,0.0,72,0.00,,---,0.00,VWS V14.01,2013-07-28 02:46:00,
2013-07-27 22:51:00,56.8,47.9,29.85,South,170,0.0,0.0,72,0.00,,---,0.00,VWS V14.01,2013-07-28 02:51:00,
2013-07-27 22:57:00,56.8,48.2,29.85,East,80,0.0,0.0,73,0.00,,---,0.00,VWS V14.01,2013-07-28 02:57:00,
2013-07-27 23:02:00,56.8,47.9,29.85,South,170,0.0,0.0,72,0.00,,---,0.00,VWS V14.01,2013-07-28 03:02:00,
2013-07-27 23:07:00,56.6,47.7,29.85,South,170,0.0,0.0,72,0.00,,---,0.00,VWS V14.01,2013-07-28 03:07:00,
2013-07-27 23:12:00,56.8,47.9,29.85,South,170,0.0,0.0,72,0.00,,---,0.00,VWS V14.01,2013-07-28 03:12:00,
2013-07-27 23:17:00,56.8,48.2,29.85,South,170,0.0,0.0,73,0.00,,---,0.00,VWS V14.01,2013-07-28 03:17:00,
2013-07-27 23:22:00,56.6,48.1,29.85,South,170,0.0,0.0,73,0.00,,---,0.00,VWS V14.01,2013-07-28 03:22:00,
2013-07-27 23:27:00,56.6,48.1,29.85,South,170,0.0,0.0,73,0.00,,---,0.00,VWS V14.01,2013-07-28 03:27:00,
2013-07-27 23:33:00,56.6,48.1,29.85,South,170,0.0,0.0,73,0.00,,---,0.00,VWS V14.01,2013-07-28 03:33:00,
2013-07-27 23:38:00,56.6,48.1,29.85,South,170,0.0,0.0,73,0.00,,---,0.00,VWS V14.01,2013-07-28 03:38:00,
2013-07-27 23:43:00,56.6,48.1,29.85,South,170,0.0,0.0,73,0.00,,---,0.00,VWS V14.01,2013-07-28 03:43:00,
2013-07-27 23:48:00,56.4,48.2,29.85,South,170,1.3,2.0,74,0.00,,---,0.00,VWS V14.01,2013-07-28 03:48:00,
2013-07-27 23:53:00,56.2,48.1,29.85,SW,215,1.7,1.7,74,0.00,,---,0.00,VWS V14.01,2013-07-28 03:53:00,
2013-07-27 23:58:00,56.1,47.9,29.85,South,170,1.7,1.7,74,0.00,,---,0.00,VWS V14.01,2013-07-28 03:58:00,